createdAt,value
2023-04-27T00:05:46.437Z,101331.72
2023-04-27T00:12:48.163Z,101324.38
2023-04-27T00:19:49.730Z,101329.81
2023-04-27T00:26:51.278Z,101318.16
2023-04-27T00:33:52.951Z,101325.03
2023-04-27T00:41:04.337Z,101330.72
2023-04-27T00:48:05.921Z,101334.59
2023-04-27T00:55:08.308Z,101337.06
2023-04-27T01:02:10.610Z,101346.00
2023-04-27T01:09:14.015Z,101340.03
2023-04-27T01:16:17.758Z,101349.28
2023-04-27T01:23:19.392Z,101346.69
2023-04-27T01:30:22.541Z,101344.69
2023-04-27T01:37:24.122Z,101352.66
2023-04-27T01:44:25.989Z,101357.38
2023-04-27T01:51:29.144Z,101367.56
2023-04-27T01:58:30.925Z,101367.56
2023-04-27T02:05:32.584Z,101369.75
2023-04-27T02:12:34.188Z,101382.09
2023-04-27T02:19:36.316Z,101381.06
2023-04-27T02:26:37.931Z,101385.97
2023-04-27T02:33:39.560Z,101396.81
2023-04-27T02:40:41.158Z,101390.59
2023-04-27T02:47:43.010Z,101399.41
2023-04-27T02:54:44.656Z,101397.66
2023-04-27T03:01:46.674Z,101408.31
2023-04-27T03:08:48.409Z,101411.91
2023-04-27T03:15:50.043Z,101410.06
2023-04-27T03:22:54.161Z,101415.38
2023-04-27T03:29:55.829Z,101408.78
2023-04-27T03:36:57.739Z,101422.38
2023-04-27T03:43:59.324Z,101426.13
2023-04-27T03:51:01.584Z,101426.06
2023-04-27T03:58:03.257Z,101442.75
2023-04-27T04:05:07.455Z,101440.50
2023-04-27T04:12:09.339Z,101445.19
2023-04-27T04:19:11.314Z,101467.56
2023-04-27T04:26:13.606Z,101468.25
2023-04-27T04:33:15.471Z,101472.25
2023-04-27T04:40:17.108Z,101473.81
2023-04-27T04:47:18.965Z,101469.44
2023-04-27T04:54:21.629Z,101475.56
2023-04-27T05:01:23.266Z,101479.38
2023-04-27T05:08:24.923Z,101491.00
2023-04-27T05:15:26.490Z,101493.75
2023-04-27T05:22:28.063Z,101493.38
2023-04-27T05:29:29.782Z,101487.16
2023-04-27T05:36:32.094Z,101488.78
2023-04-27T05:43:35.058Z,101491.22
2023-04-27T05:50:36.692Z,101496.16
2023-04-27T05:57:39.069Z,101497.47
2023-04-27T06:04:40.745Z,101508.00
2023-04-27T06:11:42.353Z,101513.44
2023-04-27T06:18:43.937Z,101515.94
2023-04-27T06:25:45.840Z,101519.94
2023-04-27T06:32:47.468Z,101520.22
2023-04-27T06:39:49.080Z,101524.22
2023-04-27T06:46:51.264Z,101530.09
2023-04-27T06:53:54.921Z,101525.84
2023-04-27T07:00:56.481Z,101538.56
2023-04-27T07:07:58.483Z,101532.03
2023-04-27T07:15:02.656Z,101537.16
2023-04-27T07:22:04.246Z,101540.63
2023-04-27T07:29:14.493Z,101529.72
2023-04-27T07:36:20.914Z,101525.94
2023-04-27T07:43:23.998Z,101535.75
2023-04-27T07:50:26.892Z,101531.09
2023-04-27T07:57:28.526Z,101535.06
2023-04-27T08:04:30.243Z,101545.97
2023-04-27T08:11:32.123Z,101552.66
2023-04-27T08:18:34.280Z,101542.09
2023-04-27T08:25:36.527Z,101546.75
2023-04-27T08:32:38.158Z,101555.81
2023-04-27T08:39:40.614Z,101556.06
2023-04-27T08:46:42.235Z,101549.06
2023-04-27T08:53:49.402Z,101546.53
2023-04-27T09:00:52.707Z,101549.13
2023-04-27T09:07:57.969Z,101552.25
2023-04-27T09:15:00.603Z,101553.59
2023-04-27T09:22:11.253Z,101554.53
2023-04-27T09:29:13.265Z,101544.47
2023-04-27T09:36:15.299Z,101541.88
2023-04-27T09:43:17.429Z,101538.56
2023-04-27T09:50:19.097Z,101531.09
2023-04-27T09:57:35.830Z,101517.00
2023-04-27T10:05:03.944Z,101506.88
2023-04-27T10:12:18.192Z,101512.38
2023-04-27T10:19:20.984Z,101505.00
2023-04-27T10:26:26.548Z,101487.13
2023-04-27T10:33:28.101Z,101482.66
2023-04-27T10:40:32.967Z,101478.13
2023-04-27T10:47:41.644Z,101471.28
2023-04-27T10:54:45.832Z,101483.97
2023-04-27T11:01:51.324Z,101481.88
2023-04-27T11:08:53.059Z,101482.44
2023-04-27T11:15:56.178Z,101487.13
2023-04-27T11:22:57.764Z,101491.75
2023-04-27T11:29:59.310Z,101503.13
2023-04-27T11:44:07.427Z,101523.41
2023-04-27T11:51:10.516Z,101527.44
2023-04-27T11:58:15.822Z,101533.44
2023-04-27T12:05:19.675Z,101534.81
2023-04-27T12:12:24.256Z,101536.66
2023-04-27T12:19:26.047Z,101523.75
2023-04-27T12:26:29.255Z,101533.16
2023-04-27T12:33:30.953Z,101546.75
2023-04-27T12:40:33.224Z,101536.75
2023-04-27T12:47:49.794Z,101535.28
2023-04-27T12:55:01.684Z,101531.38
2023-04-27T13:02:03.728Z,101534.56
2023-04-27T13:09:06.698Z,101532.03
2023-04-27T13:16:08.446Z,101526.28
2023-04-27T13:23:10.180Z,101529.69
2023-04-27T13:30:12.023Z,101523.34
2023-04-27T13:37:13.532Z,101517.50
2023-04-27T13:44:15.464Z,101523.03
2023-04-27T13:51:17.538Z,101522.72
2023-04-27T13:58:19.181Z,101522.66
2023-04-27T14:05:20.949Z,101530.84
2023-04-27T14:12:22.588Z,101522.38
2023-04-27T14:19:24.207Z,101530.03
2023-04-27T14:26:26.027Z,101533.31
2023-04-27T14:33:27.674Z,101527.31
2023-04-27T14:40:30.086Z,101534.53
2023-04-27T14:47:32.274Z,101523.56
2023-04-27T14:54:35.524Z,101528.00
2023-04-27T15:01:37.364Z,101530.13
2023-04-27T15:08:39.142Z,101522.81
2023-04-27T15:15:41.071Z,101515.31
2023-04-27T15:22:42.692Z,101519.31
2023-04-27T15:29:44.232Z,101529.41
2023-04-27T15:36:46.330Z,101511.16
2023-04-27T15:43:47.932Z,101513.72
2023-04-27T15:50:49.451Z,101511.91
2023-04-27T15:57:51.163Z,101511.91
2023-04-27T16:04:56.414Z,101497.28
2023-04-27T16:11:57.996Z,101484.28
2023-04-27T16:18:59.597Z,101474.69
2023-04-27T16:26:01.180Z,101469.16
2023-04-27T16:33:02.766Z,101460.44
2023-04-27T16:40:07.026Z,101466.97
2023-04-27T16:47:08.690Z,101463.72
2023-04-27T16:54:10.634Z,101470.78
2023-04-27T17:01:12.275Z,101473.50
2023-04-27T17:08:14.072Z,101467.59
2023-04-27T17:15:15.724Z,101473.66
2023-04-27T17:22:17.607Z,101469.75
2023-04-27T17:29:19.159Z,101484.38
2023-04-27T17:36:20.982Z,101477.81
2023-04-27T17:43:23.639Z,101477.88
2023-04-27T17:50:25.674Z,101481.59
2023-04-27T17:57:27.209Z,101478.84
2023-04-27T18:04:28.935Z,101494.78
2023-04-27T18:11:30.905Z,101501.81
2023-04-27T18:18:32.575Z,101503.72
2023-04-27T18:25:34.217Z,101521.72
2023-04-27T18:32:36.000Z,101517.72
2023-04-27T18:39:37.584Z,101525.84
2023-04-27T18:46:39.145Z,101537.94
2023-04-27T18:53:40.806Z,101551.75
2023-04-27T19:00:42.484Z,101552.88
2023-04-27T19:07:44.103Z,101547.97
2023-04-27T19:14:45.728Z,101543.94
2023-04-27T19:21:47.759Z,101540.88
2023-04-27T19:28:49.355Z,101555.47
2023-04-27T19:35:52.300Z,101548.09
2023-04-27T19:42:53.821Z,101545.59
2023-04-27T19:49:58.276Z,101547.72
2023-04-27T19:56:59.860Z,101546.53
2023-04-27T20:04:01.632Z,101544.06
2023-04-27T20:11:03.333Z,101542.88
2023-04-27T20:18:04.945Z,101534.28
2023-04-27T20:25:07.826Z,101537.44
2023-04-27T20:32:09.570Z,101537.25
2023-04-27T20:39:11.947Z,101532.34
2023-04-27T20:46:13.924Z,101536.34
2023-04-27T20:53:15.595Z,101534.19
2023-04-27T21:00:18.657Z,101532.72
2023-04-27T21:07:20.204Z,101527.53
2023-04-27T21:14:21.751Z,101527.25
2023-04-27T21:21:24.308Z,101525.69
2023-04-27T21:28:26.675Z,101517.06
2023-04-27T21:35:28.558Z,101511.78
2023-04-27T21:42:30.235Z,101526.59
2023-04-27T21:49:31.805Z,101527.69
2023-04-27T21:56:33.430Z,101519.66
2023-04-27T22:03:35.083Z,101522.81
2023-04-27T22:10:37.272Z,101515.91
2023-04-27T22:17:39.566Z,101528.91
2023-04-27T22:24:41.196Z,101524.53
2023-04-27T22:31:42.964Z,101526.66
2023-04-27T22:38:44.499Z,101534.56
2023-04-27T22:45:46.092Z,101533.84
2023-04-27T22:52:48.195Z,101527.78
2023-04-27T22:59:51.455Z,101519.38
2023-04-27T23:06:53.718Z,101520.03
2023-04-27T23:13:57.367Z,101521.53
2023-04-27T23:20:58.913Z,101512.16
2023-04-27T23:28:00.871Z,101512.97
2023-04-27T23:35:02.389Z,101500.88
2023-04-27T23:42:04.014Z,101492.81
2023-04-27T23:49:05.554Z,101489.50
2023-04-27T23:56:07.295Z,101482.78
